NCAR-RAP Real-Time Weather Data

Output produced by METARs form (12 May 2021  12:16 UTC)
found at http://weather.rap.ucar.edu/surface/
 
KAVL 121211Z 35007KT 2 1/2SM RA BR BKN014 BKN022 OVC030 09/09 A3021 RMK AO2 P0003 T00940089
KAVL 121206Z 35007KT 3SM RA BR SCT014 BKN024 OVC030 09/09 A3020 RMK AO2 P0001 T00940089
KAVL 121154Z 33011KT 5SM -RA BR FEW012 OVC030 10/09 A3019 RMK AO2 SLP212 P0006 60021 70021 T01000089 10144 20100 53018
KAVL 121144Z 34009KT 6SM -RA BR FEW012 SCT021 OVC030 10/09 A3018 RMK AO2 P0005 T01000089
KAVL 121054Z 36004KT 7SM -RA OVC019 10/09 A3017 RMK AO2 SLP203 P0009 T01000089
KAVL 120954Z AUTO 36006KT 5SM RA OVC029 11/08 A3014 RMK AO2 SLP195 P0006 T01110083
KAVL 120946Z AUTO 34007KT 8SM -RA OVC029 12/08 A3014 RMK AO2 P0005 T01170083
KAVL 120854Z AUTO 36006KT 6SM RA SCT023 OVC030 12/08 A3013 RMK AO2 RAB10 SLP192 P0000 60000 T01220083 53000
KAVL 120834Z AUTO 36003KT 10SM -RA BKN026 BKN030 OVC037 13/08 A3014 RMK AO2 RAB10 P0000 T01280083
KAVL 120754Z AUTO 33005KT 10SM OVC047 13/08 A3013 RMK AO2 SLP188 T01330078
KAVL 120654Z AUTO 01006KT 10SM OVC041 14/08 A3013 RMK AO2 SLP186 T01390078
KAVL 120554Z AUTO 35005KT 10SM OVC038 14/08 A3013 RMK AO2 SLP188 T01440083 10167 20144 58012
KAVL 120454Z AUTO 31004KT 10SM OVC044 15/09 A3016 RMK AO2 SLP196 T01500089 402000100
KAVL 120354Z AUTO 32004KT 10SM OVC050 16/08 A3016 RMK AO2 SLP199 T01560083
KAVL 120254Z AUTO 35003KT 10SM OVC055 16/08 A3017 RMK AO2 SLP203 T01560083 51020
KAVL 120154Z 34005KT 10SM OVC090 16/08 A3015 RMK AO2 SLP194 T01610078
KAVL 120054Z 32007KT 10SM FEW026 OVC040 17/11 A3014 RMK AO2 PRESRR SLP192 T01670111
KAVL 112354Z 00000KT 10SM SCT038 17/12 A3011 RMK AO2 SLP182 T01670117 10200 20167 58003
KAVL 112254Z 00000KT 10SM OVC033 17/12 A3012 RMK AO2 SLP186 T01720117
KAVL 112154Z VRB04KT 10SM OVC036 17/12 A3011 RMK AO2 SLP184 T01670117
KAVL 112054Z VRB05KT 10SM OVC035 17/12 A3012 RMK AO2 SLP185 T01670117 50001